Sachse, Texas
Current Conditions -  °F | °C
As of 10:35 AM on Friday 24 Oct 2014 (Local Time) from KF46 Reporting Station
Clear Clear  
Wind Chill: 20°   Ceiling: Unl
Heat Index: 20°   Visibility: 10mi
Dew Point: 13°   Wind: 10mph
Humidity: 63%   Direction: 170°S
Pressure: 30.18"   Gusts: 18mph
Location:  32.9674°N, 96.5785°W
Report Text: KF46 241535Z AUTO 17009G16KT 140V200 10SM CLR 20/13 A3018 RMK AO2 T01990127
Loading
Personal Weather Stations






























Interactive Weather Map
Tropical Storm Tracking
New forecast layout! Learn more

10-Day Weather Forecast

Advertisements
Track Severe Weather on mobile